Time;durP1;ratioP1;P1;durP2;ratioP2;P2;SDS_P1;SDS_P2;PMS_P1;PMS_P2;Temp;Humidity;BMP_temperature;BMP_pressure;BME280_temperature;BME280_humidity;BME280_pressure;Samples;Min_cycle;Max_cycle;Signal;HPM_P1;HPM_P2
2021/08/08 00:02:05;;;;;;;1.17;0.60;;;28.60;91.70;;;;;;5038967;28;20454;-42
2021/08/08 00:04:36;;;;;;;0.60;0.60;;;28.60;91.80;;;;;;5032483;28;20592;-42
2021/08/08 00:07:08;;;;;;;0.60;0.60;;;28.40;91.80;;;;;;5031045;28;20465;-42
2021/08/08 00:09:40;;;;;;;1.13;0.50;;;28.40;92.60;;;;;;5038996;28;20807;-42
2021/08/08 00:12:11;;;;;;;0.80;0.80;;;28.60;92.10;;;;;;5053019;28;20534;-42
2021/08/08 00:14:42;;;;;;;1.40;0.97;;;28.70;92.30;;;;;;5032708;28;20505;-42
2021/08/08 00:17:13;;;;;;;1.70;0.90;;;29.00;91.40;;;;;;5036346;28;20454;-43
2021/08/08 00:19:44;;;;;;;1.27;1.03;;;28.90;92.20;;;;;;5051695;28;20511;-41
2021/08/08 00:22:15;;;;;;;2.87;1.17;;;28.70;92.60;;;;;;5037678;28;20481;-41
2021/08/08 00:24:48;;;;;;;1.20;1.10;;;28.60;93.50;;;;;;5056096;28;20482;-43
2021/08/08 00:27:19;;;;;;;1.07;0.97;;;28.40;93.50;;;;;;5035443;28;21022;-42
2021/08/08 00:29:53;;;;;;;1.00;0.90;;;28.20;93.80;;;;;;5037975;28;20453;-42
2021/08/08 00:32:24;;;;;;;1.87;1.30;;;27.80;94.20;;;;;;5033329;28;20451;-42
2021/08/08 00:34:55;;;;;;;0.93;0.93;;;27.50;94.60;;;;;;5026115;28;20457;-43
2021/08/08 00:37:27;;;;;;;1.57;0.97;;;27.30;95.30;;;;;;5041994;28;20453;-43
2021/08/08 00:39:59;;;;;;;1.30;1.20;;;27.10;96.10;;;;;;5042782;28;20485;-43
2021/08/08 00:42:30;;;;;;;2.77;1.30;;;27.00;96.70;;;;;;5041034;28;20457;-43
2021/08/08 00:45:01;;;;;;;2.70;1.30;;;26.90;96.70;;;;;;5040309;28;20467;-44
2021/08/08 00:47:32;;;;;;;1.83;1.73;;;26.90;97.10;;;;;;5045286;28;20497;-43
2021/08/08 00:50:04;;;;;;;3.20;1.60;;;26.80;97.60;;;;;;5045801;28;20475;-43
2021/08/08 00:52:36;;;;;;;1.70;1.60;;;26.80;97.20;;;;;;5045071;28;20554;-42
2021/08/08 00:55:10;;;;;;;1.53;1.43;;;26.60;97.70;;;;;;5035735;28;20458;-42
2021/08/08 00:57:41;;;;;;;1.83;1.73;;;26.60;97.50;;;;;;5044934;28;20459;-43
2021/08/08 01:00:13;;;;;;;2.03;1.80;;;26.50;98.10;;;;;;5041718;28;20797;-43
2021/08/08 01:02:50;;;;;;;1.83;1.60;;;26.40;98.00;;;;;;5041617;28;20464;-41
2021/08/08 01:05:27;;;;;;;1.40;1.30;;;26.30;98.50;;;;;;5043734;28;20458;-43
2021/08/08 01:08:04;;;;;;;3.07;1.33;;;26.10;98.90;;;;;;5041752;28;20886;-40
2021/08/08 01:10:39;;;;;;;1.37;1.20;;;26.10;98.70;;;;;;5041441;28;20442;-42
2021/08/08 01:13:11;;;;;;;3.60;1.10;;;26.10;98.70;;;;;;5042538;28;20453;-43
2021/08/08 01:15:42;;;;;;;1.40;1.23;;;25.90;99.30;;;;;;5036077;28;20445;-41
2021/08/08 01:18:15;;;;;;;1.37;1.27;;;25.80;99.90;;;;;;5042136;28;20524;-42
2021/08/08 01:20:48;;;;;;;1.10;1.00;;;25.70;99.90;;;;;;5053275;28;20489;-44
2021/08/08 01:23:21;;;;;;;1.10;1.00;;;25.70;99.90;;;;;;5040795;28;21106;-43
2021/08/08 01:25:53;;;;;;;1.60;1.50;;;25.70;99.90;;;;;;5033081;28;20453;-43
2021/08/08 01:28:25;;;;;;;2.73;1.40;;;25.70;99.90;;;;;;5042261;28;20446;-42
2021/08/08 01:30:56;;;;;;;0.77;0.70;;;25.80;99.90;;;;;;5041534;28;20494;-42
2021/08/08 01:33:27;;;;;;;1.90;1.80;;;25.70;99.90;;;;;;5051147;28;20567;-44
2021/08/08 01:35:58;;;;;;;1.70;1.60;;;25.60;99.90;;;;;;5039142;28;20457;-43
2021/08/08 01:38:31;;;;;;;1.40;1.30;;;25.50;99.90;;;;;;5041387;28;20453;-34
2021/08/08 01:41:04;;;;;;;1.40;1.30;;;25.40;99.90;;;;;;5049424;28;20472;-42
2021/08/08 01:43:37;;;;;;;1.87;1.07;;;25.40;99.90;;;;;;5051983;28;20457;-41
2021/08/08 01:46:11;;;;;;;1.57;1.47;;;25.40;99.90;;;;;;5038206;28;20880;-40
2021/08/08 01:48:47;;;;;;;1.70;1.60;;;25.50;99.90;;;;;;5044660;28;20453;-41
2021/08/08 01:51:18;;;;;;;1.70;1.50;;;25.40;99.90;;;;;;5054139;28;20491;-41
2021/08/08 01:53:50;;;;;;;4.73;4.07;;;25.40;99.90;;;;;;5042633;28;20437;-41
2021/08/08 01:56:23;;;;;;;4.20;3.57;;;25.40;99.90;;;;;;5044308;27;20453;-41
2021/08/08 01:58:55;;;;;;;8.30;7.53;;;25.50;99.90;;;;;;5050252;27;20441;-42
2021/08/08 02:01:30;;;;;;;3.80;2.20;;;25.40;99.90;;;;;;5042477;28;20485;-42
2021/08/08 02:04:01;;;;;;;1.20;1.20;;;25.40;99.90;;;;;;5041207;28;20465;-42
2021/08/08 02:06:32;;;;;;;0.90;0.90;;;25.40;99.90;;;;;;5038625;28;20457;-41
2021/08/08 02:09:03;;;;;;;1.00;0.90;;;25.40;99.90;;;;;;5041434;28;20468;-42
2021/08/08 02:11:36;;;;;;;1.47;1.37;;;25.30;99.90;;;;;;5036425;28;20510;-42
2021/08/08 02:14:07;;;;;;;1.10;1.00;;;25.20;99.90;;;;;;5025754;28;20498;-42
2021/08/08 02:16:39;;;;;;;1.30;1.20;;;25.20;99.90;;;;;;5040316;28;20483;-41
2021/08/08 02:19:10;;;;;;;1.33;1.23;;;25.30;99.90;;;;;;5037686;28;20514;-42
2021/08/08 02:21:41;;;;;;;1.80;0.80;;;25.40;99.90;;;;;;5037189;28;20489;-42
2021/08/08 02:24:11;;;;;;;0.80;0.80;;;25.40;99.60;;;;;;5040748;28;20450;-42
2021/08/08 02:26:44;;;;;;;0.63;0.63;;;25.50;97.90;;;;;;5039600;28;20449;-43
2021/08/08 02:29:15;;;;;;;1.57;1.47;;;25.60;97.30;;;;;;5038867;28;20536;-42
2021/08/08 02:31:48;;;;;;;1.00;1.00;;;25.50;96.90;;;;;;5037832;28;20831;-41
2021/08/08 02:34:22;;;;;;;1.13;1.03;;;25.50;96.80;;;;;;5039760;28;20464;-42
2021/08/08 02:36:53;;;;;;;0.80;0.80;;;25.40;96.80;;;;;;5039263;28;20834;-41
2021/08/08 02:39:24;;;;;;;1.03;0.93;;;25.30;96.40;;;;;;5040221;28;20450;-41
2021/08/08 02:41:56;;;;;;;1.20;1.10;;;25.20;96.90;;;;;;5025131;28;20529;-42
2021/08/08 02:44:27;;;;;;;2.10;1.20;;;25.10;97.00;;;;;;5040661;28;20573;-42
2021/08/08 02:46:58;;;;;;;1.20;0.70;;;25.10;96.70;;;;;;5040073;28;20489;-41
2021/08/08 02:49:29;;;;;;;2.70;1.30;;;25.10;95.80;;;;;;5040531;28;20490;-42
2021/08/08 02:52:00;;;;;;;1.23;1.13;;;25.00;96.10;;;;;;5036615;28;20457;-41
2021/08/08 02:54:31;;;;;;;2.53;0.90;;;24.80;96.00;;;;;;5027314;28;20482;-42
2021/08/08 02:57:04;;;;;;;1.27;1.17;;;24.70;96.50;;;;;;5058605;27;20445;-41
2021/08/08 02:59:36;;;;;;;1.27;1.17;;;24.60;97.10;;;;;;5039966;28;20470;-41
2021/08/08 03:02:07;;;;;;;1.03;0.90;;;24.50;97.20;;;;;;5040488;28;20496;-43
2021/08/08 03:04:38;;;;;;;1.10;1.00;;;24.40;97.40;;;;;;5032607;28;20846;-41
2021/08/08 03:07:09;;;;;;;0.77;0.77;;;24.20;97.70;;;;;;5039511;28;20462;-42
2021/08/08 03:09:40;;;;;;;1.13;0.90;;;24.10;98.30;;;;;;5037853;28;20453;-42
2021/08/08 03:12:13;;;;;;;1.17;1.07;;;24.00;98.40;;;;;;5031692;28;20465;-42
2021/08/08 03:14:44;;;;;;;1.43;0.90;;;24.00;98.80;;;;;;5029717;28;20507;-41
2021/08/08 03:17:15;;;;;;;0.70;0.60;;;24.00;99.10;;;;;;5037878;28;20488;-41
2021/08/08 03:19:46;;;;;;;0.80;0.70;;;24.00;99.20;;;;;;5040006;28;20485;-41
2021/08/08 03:22:17;;;;;;;0.93;0.93;;;24.00;99.50;;;;;;5039100;28;21006;-41
2021/08/08 03:24:47;;;;;;;0.90;0.67;;;23.90;99.90;;;;;;5040290;28;20519;-42
2021/08/08 03:27:20;;;;;;;1.23;0.50;;;23.80;99.90;;;;;;5039381;28;20449;-42
2021/08/08 03:29:52;;;;;;;0.50;0.40;;;23.60;99.90;;;;;;5040039;28;20435;-42
2021/08/08 03:32:23;;;;;;;0.40;0.33;;;23.50;99.90;;;;;;5039201;28;20492;-41
2021/08/08 03:34:54;;;;;;;0.60;0.50;;;23.40;99.90;;;;;;5041741;28;20547;-42
2021/08/08 03:37:25;;;;;;;0.67;0.57;;;23.40;99.90;;;;;;5040655;28;20453;-41
2021/08/08 03:39:56;;;;;;;0.53;0.50;;;23.20;99.90;;;;;;5024320;28;20449;-41
2021/08/08 03:42:29;;;;;;;0.50;0.47;;;23.10;99.90;;;;;;5040009;28;20534;-42
2021/08/08 03:45:00;;;;;;;0.50;0.47;;;23.00;99.90;;;;;;5040114;28;20832;-42
2021/08/08 03:47:33;;;;;;;0.50;0.40;;;23.00;99.90;;;;;;5038634;28;20469;-41
2021/08/08 03:50:05;;;;;;;0.83;0.40;;;22.90;99.90;;;;;;5032404;28;20454;-41
2021/08/08 03:52:36;;;;;;;0.70;0.70;;;22.80;99.90;;;;;;5036013;28;20827;-41
2021/08/08 03:55:07;;;;;;;0.60;0.40;;;22.60;99.90;;;;;;5021013;28;20476;-41
2021/08/08 03:57:40;;;;;;;0.50;0.40;;;22.60;99.90;;;;;;5025868;28;20789;-41
2021/08/08 04:00:12;;;;;;;0.47;0.43;;;22.50;99.90;;;;;;5021391;28;20569;-41
2021/08/08 04:02:43;;;;;;;0.50;0.30;;;22.40;99.90;;;;;;5034703;28;20485;-41
2021/08/08 04:05:14;;;;;;;0.40;0.40;;;22.40;99.90;;;;;;5027826;28;20559;-40
2021/08/08 04:07:48;;;;;;;0.87;0.30;;;22.40;99.90;;;;;;5034521;28;20453;-41
2021/08/08 04:10:21;;;;;;;0.60;0.30;;;22.30;99.90;;;;;;5043966;28;20484;-41
2021/08/08 04:12:56;;;;;;;0.50;0.40;;;22.20;99.90;;;;;;5088625;27;20509;-42
2021/08/08 04:15:27;;;;;;;0.60;0.30;;;22.20;99.90;;;;;;5045046;27;20469;-41
2021/08/08 04:17:58;;;;;;;0.40;0.30;;;22.00;99.90;;;;;;5042319;28;20439;-40
2021/08/08 04:20:29;;;;;;;1.33;0.30;;;21.70;99.90;;;;;;5081578;27;20491;-41
2021/08/08 04:23:02;;;;;;;0.40;0.30;;;21.60;99.90;;;;;;5042449;28;20479;-41
2021/08/08 04:25:33;;;;;;;0.40;0.30;;;21.40;99.90;;;;;;5043951;27;20506;-41
2021/08/08 04:28:06;;;;;;;0.70;0.30;;;21.20;99.90;;;;;;5042461;28;20416;-40
2021/08/08 04:30:38;;;;;;;0.40;0.30;;;21.30;99.90;;;;;;5038068;28;20780;-39
2021/08/08 04:33:09;;;;;;;0.40;0.30;;;21.10;99.90;;;;;;5050778;27;20876;-40
2021/08/08 04:35:40;;;;;;;0.30;0.20;;;21.00;99.90;;;;;;5100988;27;21224;-39
2021/08/08 04:38:11;;;;;;;1.83;0.30;;;20.90;99.90;;;;;;5041986;28;20452;-40
2021/08/08 04:40:42;;;;;;;0.30;0.20;;;20.90;99.90;;;;;;5042042;28;20420;-39
2021/08/08 04:43:15;;;;;;;0.30;0.20;;;20.80;99.90;;;;;;5043179;28;20772;-37
2021/08/08 04:45:49;;;;;;;0.70;0.30;;;20.70;99.90;;;;;;5041927;28;20479;-40
2021/08/08 04:48:20;;;;;;;0.30;0.20;;;20.60;99.90;;;;;;5063333;27;20899;-40
2021/08/08 04:50:51;;;;;;;0.30;0.20;;;20.50;99.90;;;;;;5040932;28;20946;-40
2021/08/08 04:53:22;;;;;;;0.97;0.20;;;20.50;99.90;;;;;;5038740;28;20475;-41
2021/08/08 04:55:53;;;;;;;0.40;0.20;;;20.40;99.90;;;;;;5040111;28;20428;-40
2021/08/08 04:58:28;;;;;;;0.30;0.20;;;20.40;99.90;;;;;;5042250;28;20551;-41
2021/08/08 05:00:58;;;;;;;0.60;0.23;;;20.30;99.90;;;;;;5027205;28;20442;-41
2021/08/08 05:03:30;;;;;;;0.30;0.20;;;20.20;99.90;;;;;;5042152;28;20502;-41
2021/08/08 05:06:01;;;;;;;0.97;0.20;;;20.20;99.90;;;;;;5039878;27;20597;-41
2021/08/08 05:08:32;;;;;;;0.40;0.20;;;20.10;99.90;;;;;;5028677;28;20464;-40
2021/08/08 05:11:03;;;;;;;0.30;0.30;;;20.10;99.90;;;;;;5041408;28;20428;-39
2021/08/08 05:13:35;;;;;;;0.47;0.20;;;20.10;99.90;;;;;;5041957;28;20452;-41
2021/08/08 05:16:07;;;;;;;0.37;0.20;;;20.10;99.90;;;;;;5041920;28;20458;-40
2021/08/08 05:18:38;;;;;;;0.40;0.30;;;20.00;99.90;;;;;;5048006;27;20513;-40
2021/08/08 05:21:09;;;;;;;0.40;0.20;;;19.90;99.90;;;;;;5038678;27;20806;-40
2021/08/08 05:23:42;;;;;;;0.40;0.20;;;19.90;99.90;;;;;;5041541;28;20416;-40
2021/08/08 05:26:13;;;;;;;0.40;0.20;;;19.90;99.90;;;;;;5075386;27;20576;-43
2021/08/08 05:28:46;;;;;;;0.40;0.20;;;19.80;99.90;;;;;;5023077;27;20446;-38
2021/08/08 05:31:17;;;;;;;0.40;0.30;;;19.80;99.90;;;;;;5027429;28;20483;-40
2021/08/08 05:33:48;;;;;;;0.50;0.40;;;19.70;99.90;;;;;;5031293;28;20545;-41
2021/08/08 05:36:23;;;;;;;0.30;0.20;;;19.70;99.90;;;;;;5040142;28;20464;-37
2021/08/08 05:38:54;;;;;;;0.40;0.27;;;19.60;99.90;;;;;;5049852;27;20454;-40
2021/08/08 05:41:25;;;;;;;0.47;0.40;;;19.50;99.90;;;;;;5123453;27;20420;-40
2021/08/08 05:43:58;;;;;;;0.40;0.20;;;19.50;99.90;;;;;;5027756;28;21020;-39
2021/08/08 05:46:29;;;;;;;1.17;0.30;;;19.40;99.90;;;;;;5033955;28;20471;-38
2021/08/08 05:49:00;;;;;;;0.40;0.30;;;19.20;99.90;;;;;;5022948;28;20462;-39
2021/08/08 05:51:31;;;;;;;0.30;0.27;;;19.10;99.90;;;;;;5022238;28;20474;-38
2021/08/08 05:54:02;;;;;;;0.40;0.30;;;19.10;99.90;;;;;;5039432;28;20481;-41
2021/08/08 05:56:32;;;;;;;1.93;0.30;;;19.00;99.90;;;;;;5027157;28;20442;-41
2021/08/08 05:59:05;;;;;;;0.30;0.20;;;18.90;99.90;;;;;;5021604;28;20488;-39
2021/08/08 06:01:36;;;;;;;0.50;0.40;;;18.90;99.90;;;;;;5037546;28;20461;-40
2021/08/08 06:04:08;;;;;;;0.50;0.30;;;18.90;99.90;;;;;;5029997;28;20579;-40
2021/08/08 06:06:39;;;;;;;1.20;0.70;;;18.90;99.90;;;;;;5029092;28;20514;-40
2021/08/08 06:09:10;;;;;;;2.57;1.00;;;18.80;99.90;;;;;;5039875;28;20465;-41
2021/08/08 06:11:41;;;;;;;0.73;0.70;;;18.70;99.90;;;;;;5039513;28;20498;-41
2021/08/08 06:14:13;;;;;;;2.20;1.00;;;18.60;99.90;;;;;;5040497;28;20445;-40
2021/08/08 06:16:44;;;;;;;1.70;1.30;;;18.60;99.90;;;;;;5024951;28;20865;-41
2021/08/08 06:19:15;;;;;;;2.13;1.40;;;18.50;99.90;;;;;;5023341;28;20488;-40
2021/08/08 06:21:46;;;;;;;1.20;1.03;;;18.40;99.90;;;;;;5039878;28;20448;-40
2021/08/08 06:24:19;;;;;;;1.20;1.10;;;18.40;99.90;;;;;;5039862;28;20453;-41
2021/08/08 06:26:49;;;;;;;1.37;1.10;;;18.40;99.90;;;;;;5039697;28;20424;-40
2021/08/08 06:29:22;;;;;;;1.10;1.00;;;18.40;99.90;;;;;;5024129;28;20468;-40
2021/08/08 06:31:54;;;;;;;1.13;0.90;;;18.40;99.90;;;;;;5033883;28;20504;-39
2021/08/08 06:34:25;;;;;;;0.80;0.80;;;18.40;99.90;;;;;;5037007;28;20537;-40
2021/08/08 06:36:55;;;;;;;1.40;0.80;;;18.30;99.90;;;;;;5046468;28;20447;-38
2021/08/08 06:39:27;;;;;;;2.30;0.70;;;18.30;99.90;;;;;;5026613;28;20521;-41
2021/08/08 06:41:57;;;;;;;1.07;0.80;;;18.40;99.90;;;;;;5036431;28;20441;-37
2021/08/08 06:44:30;;;;;;;1.87;1.00;;;18.30;99.90;;;;;;5023193;28;20435;-40
2021/08/08 06:47:01;;;;;;;1.50;0.80;;;18.30;99.90;;;;;;5036464;28;20453;-38
2021/08/08 06:49:32;;;;;;;2.07;1.20;;;18.20;99.90;;;;;;5033354;28;20998;-41
2021/08/08 06:52:03;;;;;;;2.90;1.20;;;18.10;99.90;;;;;;5037858;28;20473;-40
2021/08/08 06:54:34;;;;;;;3.13;1.77;;;17.90;99.90;;;;;;5040649;28;20484;-39
2021/08/08 06:57:05;;;;;;;1.47;1.30;;;17.70;99.90;;;;;;5037589;28;20479;-42
2021/08/08 06:59:42;;;;;;;2.87;1.50;;;17.60;99.90;;;;;;5039981;28;20453;-38
2021/08/08 07:02:13;;;;;;;2.03;1.80;;;17.50;99.90;;;;;;5042541;28;20480;-39
2021/08/08 07:04:44;;;;;;;3.10;2.20;;;17.50;99.90;;;;;;5031907;28;20510;-40
2021/08/08 07:07:16;;;;;;;2.60;1.67;;;17.40;99.90;;;;;;5039098;28;20464;-40
2021/08/08 07:09:46;;;;;;;3.87;1.90;;;17.30;99.90;;;;;;5024211;28;20458;-40
2021/08/08 07:12:17;;;;;;;2.23;1.93;;;17.30;99.90;;;;;;5038601;28;20537;-40
2021/08/08 07:14:53;;;;;;;2.50;2.30;;;17.30;99.90;;;;;;5040374;28;20446;-40
2021/08/08 07:17:24;;;;;;;3.20;3.00;;;17.40;99.90;;;;;;5039558;28;20478;-37
2021/08/08 07:19:55;;;;;;;2.40;2.20;;;17.40;99.90;;;;;;5036502;27;20458;-41
2021/08/08 07:22:25;;;;;;;2.20;1.97;;;17.50;99.90;;;;;;5092612;27;20464;-40
2021/08/08 07:24:56;;;;;;;2.90;2.10;;;17.50;99.90;;;;;;5105942;27;20478;-41
2021/08/08 07:27:27;;;;;;;3.27;2.10;;;17.50;99.90;;;;;;5050944;28;20441;-40
2021/08/08 07:30:00;;;;;;;2.53;2.33;;;17.60;99.90;;;;;;5039433;28;20509;-40
2021/08/08 07:32:31;;;;;;;2.47;2.27;;;17.60;99.90;;;;;;5028969;28;20464;-39
2021/08/08 07:35:02;;;;;;;3.80;2.43;;;17.70;99.90;;;;;;5034973;28;20820;-40
2021/08/08 07:37:33;;;;;;;3.73;2.40;;;17.60;99.90;;;;;;5038621;28;20428;-40
2021/08/08 07:40:07;;;;;;;4.10;2.60;;;17.60;99.90;;;;;;5037128;28;20919;-40
2021/08/08 07:42:38;;;;;;;3.57;2.50;;;17.60;99.90;;;;;;5027060;28;20484;-40
2021/08/08 07:45:12;;;;;;;5.50;2.97;;;17.70;99.90;;;;;;5034276;28;20488;-40
2021/08/08 07:47:43;;;;;;;3.50;3.20;;;17.70;99.90;;;;;;5038797;28;20461;-38
2021/08/08 07:50:14;;;;;;;3.20;2.80;;;17.70;99.90;;;;;;5030872;28;20454;-41
2021/08/08 07:52:45;;;;;;;5.00;2.70;;;17.60;99.90;;;;;;5028232;28;20488;-40
2021/08/08 07:55:16;;;;;;;3.00;2.43;;;17.50;99.90;;;;;;5039181;28;20498;-40
2021/08/08 07:57:47;;;;;;;5.17;2.33;;;17.50;99.90;;;;;;5039995;28;20506;-42
2021/08/08 08:00:19;;;;;;;2.73;2.43;;;17.40;99.90;;;;;;5055490;28;20497;-41
2021/08/08 08:02:50;;;;;;;3.00;2.70;;;17.20;99.90;;;;;;5044309;28;20524;-40
2021/08/08 08:05:22;;;;;;;2.70;2.50;;;17.20;99.90;;;;;;5028494;28;20452;-41
2021/08/08 08:07:53;;;;;;;2.87;2.67;;;17.10;99.90;;;;;;5036600;28;20787;-40
2021/08/08 08:10:25;;;;;;;3.60;2.73;;;17.00;99.90;;;;;;5039444;28;20514;-39
2021/08/08 08:12:56;;;;;;;4.70;2.93;;;16.90;99.90;;;;;;5039535;28;20477;-39
2021/08/08 08:15:29;;;;;;;2.50;1.93;;;16.90;99.90;;;;;;5039314;28;20490;-40
2021/08/08 08:18:00;;;;;;;4.00;2.80;;;16.80;99.90;;;;;;5029615;28;20522;-39
2021/08/08 08:20:31;;;;;;;2.80;2.60;;;16.60;99.90;;;;;;5030725;28;20458;-40
2021/08/08 08:23:02;;;;;;;2.87;2.53;;;16.50;99.90;;;;;;5036159;28;20477;-40
2021/08/08 08:25:34;;;;;;;4.50;2.73;;;16.50;99.90;;;;;;5038476;28;20442;-40
2021/08/08 08:28:06;;;;;;;3.13;2.50;;;16.50;99.90;;;;;;5032761;28;20448;-40
2021/08/08 08:30:38;;;;;;;4.90;3.20;;;16.40;99.90;;;;;;5038231;28;20533;-40
2021/08/08 08:33:28;;;;;;;4.67;2.63;;;16.30;99.90;;;;;;5026031;28;20533;-38
2021/08/08 08:35:59;;;;;;;3.70;2.80;;;16.30;99.90;;;;;;5026244;28;20480;-38
2021/08/08 08:38:30;;;;;;;3.27;2.73;;;16.30;99.90;;;;;;5029481;28;20495;-40
2021/08/08 08:41:05;;;;;;;3.70;3.20;;;16.20;99.90;;;;;;5029027;28;20465;-38
2021/08/08 08:43:36;;;;;;;4.53;2.63;;;16.10;99.90;;;;;;5039363;28;20468;-40
2021/08/08 08:46:11;;;;;;;4.13;2.60;;;16.10;99.90;;;;;;5039255;28;20442;-40
2021/08/08 08:48:43;;;;;;;3.80;2.73;;;16.00;99.90;;;;;;5038792;28;20437;-41
2021/08/08 08:51:16;;;;;;;2.97;2.77;;;16.00;99.90;;;;;;5032759;28;20461;-40
2021/08/08 08:53:48;;;;;;;4.00;3.37;;;16.00;99.90;;;;;;5036184;28;20516;-41
2021/08/08 08:56:19;;;;;;;6.17;3.57;;;16.00;99.90;;;;;;5032334;28;21041;-40
2021/08/08 08:58:50;;;;;;;4.07;3.50;;;15.90;99.90;;;;;;5024366;28;20976;-41
2021/08/08 09:01:25;;;;;;;3.20;2.87;;;15.80;99.90;;;;;;5022127;28;20454;-40
2021/08/08 09:03:56;;;;;;;5.87;3.17;;;15.80;99.90;;;;;;5022301;28;20477;-40
2021/08/08 09:06:28;;;;;;;6.40;3.53;;;15.70;99.90;;;;;;5040359;28;20453;-40
2021/08/08 09:08:59;;;;;;;3.20;2.93;;;15.70;99.90;;;;;;5031261;28;20935;-40
2021/08/08 09:11:40;;;;;;;3.60;3.07;;;15.70;99.90;;;;;;5030165;28;20506;-43
2021/08/08 09:14:12;;;;;;;4.00;2.70;;;15.60;99.90;;;;;;5026853;28;20522;-39
2021/08/08 09:16:47;;;;;;;3.73;3.40;;;15.60;99.90;;;;;;5041874;28;20437;-39
2021/08/08 09:19:21;;;;;;;4.83;3.37;;;15.60;99.90;;;;;;5042023;28;20557;-41
2021/08/08 09:21:53;;;;;;;6.40;3.77;;;15.50;99.90;;;;;;5038581;28;20535;-39
2021/08/08 09:24:28;;;;;;;3.17;2.90;;;15.50;99.90;;;;;;5037224;28;20553;-39
2021/08/08 09:27:06;;;;;;;4.67;3.57;;;15.40;99.90;;;;;;5040709;28;20474;-39
2021/08/08 09:29:38;;;;;;;3.77;3.27;;;15.40;99.90;;;;;;5036387;28;20461;-40
2021/08/08 09:32:12;;;;;;;5.90;3.40;;;15.40;99.90;;;;;;5025393;28;20481;-40
2021/08/08 09:34:46;;;;;;;3.53;3.23;;;15.40;99.90;;;;;;5026138;28;20500;-39
2021/08/08 09:37:19;;;;;;;4.57;3.50;;;15.40;99.90;;;;;;5026536;28;20485;-40
2021/08/08 09:39:53;;;;;;;3.90;3.60;;;15.30;99.90;;;;;;5029111;28;20464;-39
2021/08/08 09:42:25;;;;;;;5.13;4.13;;;15.30;99.90;;;;;;5027004;28;20562;-39
2021/08/08 09:44:57;;;;;;;5.33;3.80;;;15.20;99.90;;;;;;5039148;28;20484;-40
2021/08/08 09:47:40;;;;;;;4.83;4.40;;;15.20;99.90;;;;;;5030026;28;20525;-40
2021/08/08 09:50:16;;;;;;;4.60;4.20;;;15.10;99.90;;;;;;5039925;28;20446;-39
2021/08/08 09:52:53;;;;;;;3.93;3.13;;;15.10;99.90;;;;;;5038322;28;20515;-39
2021/08/08 09:55:28;;;;;;;4.30;3.30;;;15.00;99.90;;;;;;5033775;28;20485;-39
2021/08/08 09:57:59;;;;;;;3.73;3.40;;;15.00;99.90;;;;;;5041275;28;20872;-39
2021/08/08 10:00:33;;;;;;;5.50;3.27;;;15.10;99.90;;;;;;5034831;28;20443;-40
2021/08/08 10:03:07;;;;;;;4.47;3.40;;;15.00;99.90;;;;;;5025532;28;20473;-40
2021/08/08 10:05:40;;;;;;;4.60;3.73;;;15.00;99.90;;;;;;5026618;28;20456;-40
2021/08/08 10:08:12;;;;;;;4.87;4.00;;;15.00;99.90;;;;;;5040207;28;20573;-40
2021/08/08 10:10:44;;;;;;;4.03;3.23;;;14.90;99.90;;;;;;5029146;28;20472;-40
2021/08/08 10:13:38;;;;;;;4.63;4.10;;;15.00;99.90;;;;;;5021311;28;20808;-40
2021/08/08 10:16:14;;;;;;;4.07;3.63;;;15.00;99.90;;;;;;5038772;28;20518;-40
2021/08/08 10:18:53;;;;;;;5.33;3.73;;;15.10;99.90;;;;;;5037616;28;20868;-37
2021/08/08 10:21:24;;;;;;;6.03;4.10;;;15.10;99.90;;;;;;5033648;28;20474;-40
2021/08/08 10:23:57;;;;;;;3.97;3.47;;;15.20;99.90;;;;;;5070120;27;20471;-38
2021/08/08 10:26:29;;;;;;;5.50;3.30;;;15.20;99.90;;;;;;5055136;27;20506;-41
2021/08/08 10:29:01;;;;;;;4.60;3.80;;;15.20;99.90;;;;;;5048445;28;20481;-39
2021/08/08 10:31:33;;;;;;;4.93;3.80;;;15.10;99.90;;;;;;5040004;28;20508;-40
2021/08/08 10:34:06;;;;;;;4.20;3.80;;;15.10;99.90;;;;;;5040651;28;20445;-39
2021/08/08 10:36:40;;;;;;;5.77;4.20;;;15.20;99.90;;;;;;5037369;28;20521;-39
2021/08/08 10:39:13;;;;;;;6.80;3.83;;;15.30;99.90;;;;;;5030772;28;20468;-40
2021/08/08 10:41:58;;;;;;;5.27;3.67;;;15.40;99.90;;;;;;5040075;28;20456;-39
2021/08/08 10:44:29;;;;;;;4.50;4.03;;;15.40;99.90;;;;;;5046641;28;20760;-40
2021/08/08 10:47:00;;;;;;;6.87;3.93;;;15.60;99.90;;;;;;5042408;28;20596;-39
2021/08/08 10:49:33;;;;;;;4.50;3.97;;;15.60;99.90;;;;;;5048033;28;20450;-39
2021/08/08 10:52:06;;;;;;;3.90;3.60;;;15.70;99.90;;;;;;5040540;28;20456;-40
2021/08/08 10:54:44;;;;;;;4.47;4.07;;;15.70;99.90;;;;;;5049899;28;20469;-40
2021/08/08 10:57:16;;;;;;;4.33;3.90;;;15.80;99.90;;;;;;5077571;27;20449;-39
2021/08/08 10:59:48;;;;;;;3.67;3.33;;;15.80;99.90;;;;;;5040830;28;20509;-39
2021/08/08 11:02:25;;;;;;;5.40;3.97;;;15.90;99.90;;;;;;5040276;28;20540;-40
2021/08/08 11:04:59;;;;;;;4.37;3.90;;;15.90;99.90;;;;;;5043426;28;20464;-39
2021/08/08 11:07:33;;;;;;;4.60;3.50;;;16.00;99.90;;;;;;5039286;28;20469;-38
2021/08/08 11:10:04;;;;;;;6.53;4.10;;;15.90;99.90;;;;;;5039098;28;20453;-38
2021/08/08 11:12:37;;;;;;;4.23;3.83;;;15.90;99.90;;;;;;5039898;28;20461;-40
2021/08/08 11:15:10;;;;;;;4.83;4.33;;;15.90;99.90;;;;;;5039605;28;20608;-40
2021/08/08 11:17:44;;;;;;;6.10;3.80;;;16.10;99.90;;;;;;5039808;28;20477;-40
2021/08/08 11:20:17;;;;;;;4.47;3.90;;;16.10;99.90;;;;;;5038936;28;20474;-40
2021/08/08 11:22:51;;;;;;;4.20;3.80;;;16.10;99.90;;;;;;5041925;28;20469;-39
2021/08/08 11:25:23;;;;;;;6.57;4.30;;;16.10;99.90;;;;;;5047329;28;20478;-39
2021/08/08 11:27:56;;;;;;;4.40;3.97;;;16.20;99.90;;;;;;5050451;27;20457;-38
2021/08/08 11:30:38;;;;;;;4.53;4.10;;;16.20;99.90;;;;;;5039204;28;20560;-39
2021/08/08 11:33:10;;;;;;;5.73;4.10;;;16.10;99.90;;;;;;5039698;28;20453;-39
2021/08/08 11:35:43;;;;;;;5.23;3.67;;;15.90;99.90;;;;;;5038611;28;20492;-38
2021/08/08 11:38:19;;;;;;;10.00;4.17;;;15.80;99.90;;;;;;5039986;28;20482;-39
2021/08/08 11:40:50;;;;;;;4.30;3.63;;;15.80;99.90;;;;;;5029329;28;20499;-40
2021/08/08 11:43:21;;;;;;;6.20;4.00;;;15.70;99.90;;;;;;5044635;28;20452;-37
2021/08/08 11:45:52;;;;;;;5.27;3.93;;;15.60;99.90;;;;;;5046727;28;20485;-38
2021/08/08 11:48:23;;;;;;;4.73;4.23;;;15.50;99.90;;;;;;5049997;28;20452;-38
2021/08/08 11:51:01;;;;;;;6.57;4.50;;;15.50;99.90;;;;;;5023336;28;20449;-38
2021/08/08 11:53:34;;;;;;;6.43;4.03;;;15.50;99.90;;;;;;5050089;28;20960;-39
2021/08/08 11:56:16;;;;;;;5.63;5.07;;;15.40;99.90;;;;;;5067956;28;20500;-37
2021/08/08 11:58:51;;;;;;;6.07;4.37;;;15.50;99.90;;;;;;5068561;27;20735;-39
2021/08/08 12:01:23;;;;;;;7.07;4.20;;;15.50;99.90;;;;;;5038987;28;20460;-39
2021/08/08 12:03:55;;;;;;;6.13;4.40;;;15.50;99.90;;;;;;5045695;28;20460;-38
2021/08/08 12:06:28;;;;;;;6.63;4.50;;;15.50;99.90;;;;;;5038080;28;20449;-39
2021/08/08 12:08:59;;;;;;;4.93;4.10;;;15.30;99.90;;;;;;5039538;28;20489;-37
2021/08/08 12:11:30;;;;;;;4.70;4.20;;;15.40;99.90;;;;;;5044819;28;20453;-40
2021/08/08 12:14:05;;;;;;;4.70;4.30;;;15.40;99.90;;;;;;5039288;28;20448;-39
2021/08/08 12:16:38;;;;;;;6.17;4.47;;;15.50;99.90;;;;;;5042086;28;20841;-40
2021/08/08 12:19:10;;;;;;;5.07;4.57;;;15.50;99.90;;;;;;5039295;28;20501;-38
2021/08/08 12:21:43;;;;;;;5.33;4.20;;;15.60;99.90;;;;;;5045373;28;20460;-39
2021/08/08 12:24:14;;;;;;;6.90;4.93;;;15.70;99.90;;;;;;5042999;28;20475;-40
2021/08/08 12:26:52;;;;;;;5.87;4.30;;;15.70;99.90;;;;;;5073665;28;20448;-38
2021/08/08 12:29:31;;;;;;;4.27;3.87;;;15.80;99.90;;;;;;5056233;27;20454;-36
2021/08/08 12:32:14;;;;;;;7.83;4.10;;;15.80;99.90;;;;;;5042059;28;20496;-38
2021/08/08 12:34:46;;;;;;;6.33;4.30;;;15.90;99.90;;;;;;5043920;28;20457;-39
2021/08/08 12:37:23;;;;;;;5.07;3.70;;;15.80;99.90;;;;;;5041636;28;20540;-39
2021/08/08 12:39:54;;;;;;;5.90;4.13;;;15.80;99.90;;;;;;5042337;28;20441;-38
2021/08/08 12:42:26;;;;;;;5.90;4.53;;;15.80;99.90;;;;;;5049212;28;20484;-37
2021/08/08 12:45:03;;;;;;;4.13;3.70;;;15.90;99.90;;;;;;5048950;28;20461;-39
2021/08/08 12:47:35;;;;;;;5.60;4.50;;;15.90;99.90;;;;;;5046327;28;20445;-40
2021/08/08 12:50:17;;;;;;;6.37;4.27;;;15.90;99.90;;;;;;5042825;28;20456;-39
2021/08/08 12:52:52;;;;;;;5.23;3.77;;;16.00;99.90;;;;;;5049487;28;20479;-40
2021/08/08 12:55:23;;;;;;;4.33;3.70;;;16.00;99.90;;;;;;5045180;28;20473;-40
2021/08/08 12:57:54;;;;;;;8.40;6.67;;;16.00;99.90;;;;;;5115829;27;20479;-39
2021/08/08 13:00:25;;;;;;;10.77;6.93;;;16.00;99.90;;;;;;5041429;28;20473;-37
2021/08/08 13:02:57;;;;;;;10.03;7.43;;;16.10;99.90;;;;;;5042447;28;20441;-40
2021/08/08 13:05:30;;;;;;;7.57;6.63;;;16.10;99.90;;;;;;5045551;28;20508;-40
2021/08/08 13:08:03;;;;;;;7.73;6.43;;;16.10;99.90;;;;;;5043102;28;20523;-39
2021/08/08 13:10:36;;;;;;;8.37;6.37;;;16.20;99.90;;;;;;5048832;28;20452;-39
2021/08/08 13:13:07;;;;;;;7.50;6.10;;;16.20;99.90;;;;;;5041970;28;20489;-39